createdAt,value
2018-08-04T00:00:48.819Z,27.17
2018-08-04T00:03:18.369Z,27.07
2018-08-04T00:05:47.985Z,26.73
2018-08-04T00:08:17.402Z,25.70
2018-08-04T00:10:46.848Z,24.47
2018-08-04T00:13:16.245Z,26.83
2018-08-04T00:15:45.861Z,27.20
2018-08-04T00:18:15.444Z,26.07
2018-08-04T00:20:44.951Z,29.97
2018-08-04T00:23:14.375Z,26.47
2018-08-04T00:25:43.809Z,24.27
2018-08-04T00:28:13.236Z,25.77
2018-08-04T00:30:42.976Z,25.70
2018-08-04T00:33:12.511Z,25.73
2018-08-04T00:35:41.919Z,27.20
2018-08-04T00:38:10.978Z,25.53
2018-08-04T00:40:40.325Z,28.87
2018-08-04T00:43:09.826Z,32.13
2018-08-04T00:45:38.872Z,29.47
2018-08-04T00:48:08.148Z,29.00
2018-08-04T00:50:37.616Z,29.87
2018-08-04T00:53:07.347Z,28.67
2018-08-04T00:55:36.903Z,31.77
2018-08-04T00:58:06.381Z,32.83
2018-08-04T01:00:35.809Z,28.40
2018-08-04T01:03:05.309Z,32.00
2018-08-04T01:05:34.696Z,29.43
2018-08-04T01:08:04.335Z,31.17
2018-08-04T01:10:33.900Z,31.53
2018-08-04T01:13:03.323Z,30.77
2018-08-04T01:15:32.969Z,32.17
2018-08-04T01:18:02.488Z,30.70
2018-08-04T01:20:32.304Z,30.77
2018-08-04T01:23:01.692Z,33.67
2018-08-04T01:25:31.093Z,30.67
2018-08-04T01:28:00.529Z,32.50
2018-08-04T01:30:29.982Z,33.20
2018-08-04T01:32:59.590Z,33.53
2018-08-04T01:35:29.226Z,33.90
2018-08-04T01:37:58.316Z,36.30
2018-08-04T01:40:27.617Z,40.00
2018-08-04T01:42:57.118Z,33.87
2018-08-04T01:45:26.620Z,32.17
2018-08-04T01:47:55.730Z,32.67
2018-08-04T01:50:25.018Z,38.70
2018-08-04T01:52:54.477Z,33.93
2018-08-04T01:55:32.540Z,35.87
2018-08-04T01:58:02.553Z,37.10
2018-08-04T02:00:31.977Z,37.07
2018-08-04T02:03:01.381Z,35.63
2018-08-04T02:05:30.819Z,34.13
2018-08-04T02:08:00.369Z,37.27
2018-08-04T02:10:30.309Z,43.03
2018-08-04T02:12:59.801Z,30.97
2018-08-04T02:15:29.173Z,33.50
2018-08-04T02:17:58.580Z,35.20
2018-08-04T02:20:29.004Z,35.00
2018-08-04T02:22:58.783Z,33.30
2018-08-04T02:25:28.176Z,34.20
2018-08-04T02:27:57.597Z,36.27
2018-08-04T02:30:26.988Z,31.37
2018-08-04T02:32:56.408Z,33.03
2018-08-04T02:35:25.838Z,33.67
2018-08-04T02:37:55.278Z,32.57
2018-08-04T02:40:24.679Z,31.80
2018-08-04T02:42:54.193Z,32.93
2018-08-04T02:45:23.964Z,33.67
2018-08-04T02:47:53.535Z,34.23
2018-08-04T02:50:23.010Z,33.10
2018-08-04T02:52:52.846Z,33.60
2018-08-04T02:55:22.387Z,34.33
2018-08-04T02:57:52.983Z,35.73
2018-08-04T03:00:22.433Z,36.57
2018-08-04T03:02:51.886Z,38.07
2018-08-04T03:05:21.324Z,36.87
2018-08-04T03:07:53.517Z,37.90
2018-08-04T03:10:23.002Z,37.03
2018-08-04T03:12:52.412Z,39.10
2018-08-04T03:15:21.811Z,38.83
2018-08-04T03:17:51.274Z,42.47
2018-08-04T03:20:20.691Z,38.73
2018-08-04T03:22:50.508Z,41.30
2018-08-04T03:25:20.093Z,40.07
2018-08-04T03:27:49.523Z,39.53
2018-08-04T03:30:18.975Z,40.07
2018-08-04T03:32:48.417Z,38.40
2018-08-04T03:35:17.792Z,35.73
2018-08-04T03:37:47.321Z,38.30
2018-08-04T03:40:16.931Z,40.10
2018-08-04T03:42:46.282Z,39.43
2018-08-04T03:45:16.143Z,41.70
2018-08-04T03:47:45.502Z,48.47
2018-08-04T03:50:17.702Z,46.33
2018-08-04T03:52:47.146Z,44.03
2018-08-04T03:55:16.605Z,46.37
2018-08-04T03:57:46.018Z,41.87
2018-08-04T04:00:15.380Z,40.80
2018-08-04T04:02:44.955Z,42.23
2018-08-04T04:05:14.383Z,43.60
2018-08-04T04:07:43.811Z,44.17
2018-08-04T04:10:13.221Z,40.43
2018-08-04T04:12:42.690Z,38.13
2018-08-04T04:15:12.184Z,44.97
2018-08-04T04:17:46.154Z,40.73
2018-08-04T04:20:22.221Z,44.73
2018-08-04T04:22:51.737Z,41.80
2018-08-04T04:25:21.269Z,38.93
2018-08-04T04:27:50.657Z,37.30
2018-08-04T04:30:20.036Z,38.37
2018-08-04T04:32:49.443Z,34.50
2018-08-04T04:35:19.255Z,32.23
2018-08-04T04:37:48.765Z,36.67
2018-08-04T04:40:18.245Z,32.17
2018-08-04T04:42:47.666Z,34.30
2018-08-04T04:45:23.300Z,31.30
2018-08-04T04:47:53.111Z,33.20
2018-08-04T04:50:22.563Z,32.43
2018-08-04T04:52:52.002Z,32.17
2018-08-04T04:55:21.447Z,30.10
2018-08-04T04:57:50.830Z,30.20
2018-08-04T05:00:20.662Z,29.73
2018-08-04T05:02:50.089Z,29.93
2018-08-04T05:05:19.525Z,32.17
2018-08-04T05:07:48.955Z,29.67
2018-08-04T05:10:18.312Z,29.80
2018-08-04T05:12:47.809Z,28.87
2018-08-04T05:15:17.151Z,28.83
2018-08-04T05:17:46.536Z,26.90
2018-08-04T05:20:15.953Z,29.00
2018-08-04T05:22:45.358Z,27.40
2018-08-04T05:25:14.984Z,27.67
2018-08-04T05:27:44.460Z,28.40
2018-08-04T05:30:13.885Z,26.70
2018-08-04T05:32:43.281Z,27.30
2018-08-04T05:35:12.717Z,27.70
2018-08-04T05:37:42.715Z,26.00
2018-08-04T05:40:12.924Z,26.73
2018-08-04T05:42:42.542Z,26.13
2018-08-04T05:45:12.761Z,27.33
2018-08-04T05:47:42.243Z,25.87
2018-08-04T05:50:12.240Z,23.87
2018-08-04T05:52:42.633Z,24.20
2018-08-04T05:55:12.199Z,25.60
2018-08-04T05:57:41.768Z,26.37
2018-08-04T06:00:11.323Z,24.70
2018-08-04T06:02:41.048Z,26.27
2018-08-04T06:05:11.083Z,24.33
2018-08-04T06:07:41.433Z,28.57
2018-08-04T06:10:12.021Z,26.53
2018-08-04T06:12:41.161Z,26.63
2018-08-04T06:15:10.688Z,23.63
2018-08-04T06:17:40.337Z,24.30
2018-08-04T06:20:11.069Z,24.80
2018-08-04T06:22:40.532Z,29.83
2018-08-04T06:25:10.109Z,24.83
2018-08-04T06:27:41.509Z,26.10
2018-08-04T06:30:12.523Z,24.80
2018-08-04T06:32:42.869Z,30.83
2018-08-04T06:35:12.383Z,25.57
2018-08-04T06:40:19.450Z,28.60
2018-08-04T06:42:49.375Z,27.97
2018-08-04T06:45:18.999Z,26.67
2018-08-04T06:47:49.217Z,24.50
2018-08-04T06:50:18.789Z,27.20
2018-08-04T06:52:48.566Z,25.13
2018-08-04T06:55:18.222Z,22.73
2018-08-04T06:57:47.811Z,23.57
2018-08-04T07:00:17.372Z,23.27
2018-08-04T07:02:46.917Z,24.03
2018-08-04T07:05:16.470Z,22.20
2018-08-04T07:07:47.207Z,24.17
2018-08-04T07:10:17.022Z,22.60
2018-08-04T07:12:46.578Z,27.83
2018-08-04T07:15:18.502Z,23.90
2018-08-04T07:17:48.111Z,21.00
2018-08-04T07:20:17.649Z,23.63
2018-08-04T07:22:47.154Z,20.40
2018-08-04T07:25:16.723Z,19.73
2018-08-04T07:27:46.352Z,19.23
2018-08-04T07:30:16.470Z,17.47
2018-08-04T07:32:46.285Z,17.83
2018-08-04T07:35:16.064Z,22.53
2018-08-04T07:37:45.659Z,20.40
2018-08-04T07:40:15.234Z,17.33
2018-08-04T07:42:44.967Z,16.20
2018-08-04T07:45:14.610Z,16.57
2018-08-04T07:47:44.119Z,15.57
2018-08-04T07:50:13.702Z,14.00
2018-08-04T07:52:43.464Z,14.80
2018-08-04T07:55:13.048Z,14.00
2018-08-04T07:57:44.071Z,13.63
2018-08-04T08:00:14.000Z,13.67
2018-08-04T08:02:43.555Z,13.93
2018-08-04T08:05:13.476Z,12.70
2018-08-04T08:07:43.005Z,13.30
2018-08-04T08:10:12.550Z,12.53
2018-08-04T08:12:42.126Z,12.97
2018-08-04T08:15:11.866Z,12.33
2018-08-04T08:17:43.018Z,14.13
2018-08-04T08:20:13.744Z,14.30
2018-08-04T08:22:44.156Z,13.30
2018-08-04T08:25:13.656Z,14.20
2018-08-04T08:27:43.170Z,14.77
2018-08-04T08:30:15.186Z,13.70
2018-08-04T08:32:44.708Z,13.73
2018-08-04T08:35:14.279Z,13.87
2018-08-04T08:37:43.763Z,13.20
2018-08-04T08:40:13.240Z,13.17
2018-08-04T08:42:42.841Z,13.70
2018-08-04T08:45:12.391Z,15.70
2018-08-04T08:47:41.856Z,13.37
2018-08-04T08:50:12.718Z,13.10
2018-08-04T08:52:42.226Z,13.20
2018-08-04T08:55:11.756Z,13.40
2018-08-04T08:57:41.234Z,11.77
2018-08-04T09:00:11.852Z,12.50
2018-08-04T09:02:41.369Z,14.23
2018-08-04T09:05:11.437Z,11.97
2018-08-04T09:07:40.895Z,12.30
2018-08-04T09:10:11.728Z,12.27
2018-08-04T09:12:41.473Z,11.77
2018-08-04T09:15:11.296Z,11.03
2018-08-04T09:17:40.899Z,12.87
2018-08-04T09:20:10.897Z,12.77
2018-08-04T09:22:40.356Z,11.87
2018-08-04T09:25:09.992Z,10.43
2018-08-04T09:27:40.027Z,11.00
2018-08-04T09:30:12.153Z,9.90
2018-08-04T09:32:42.851Z,10.93
2018-08-04T09:35:13.470Z,11.93
2018-08-04T09:37:43.081Z,10.20
2018-08-04T09:40:15.030Z,10.50
2018-08-04T09:42:45.363Z,12.43
2018-08-04T09:45:14.830Z,13.23
2018-08-04T09:47:44.555Z,12.40
2018-08-04T09:50:14.018Z,11.03
2018-08-04T09:52:43.534Z,12.50
2018-08-04T09:55:13.281Z,11.53
2018-08-04T09:57:42.873Z,9.70
2018-08-04T10:00:18.573Z,9.87
2018-08-04T10:02:48.269Z,9.87
2018-08-04T10:05:18.207Z,11.20
2018-08-04T10:07:47.842Z,9.23
2018-08-04T10:10:17.376Z,9.70
2018-08-04T10:12:47.013Z,11.87
2018-08-04T10:15:16.595Z,11.33
2018-08-04T10:17:46.124Z,9.67
2018-08-04T10:20:15.783Z,9.70
2018-08-04T10:22:45.427Z,10.00
2018-08-04T10:25:15.224Z,10.20
2018-08-04T10:27:44.976Z,9.23
2018-08-04T10:30:14.714Z,9.27
2018-08-04T10:32:44.906Z,10.07
2018-08-04T10:35:14.714Z,10.47
2018-08-04T10:37:44.800Z,10.43
2018-08-04T10:40:14.344Z,11.07
2018-08-04T10:42:47.301Z,9.23
2018-08-04T10:45:17.381Z,9.40
2018-08-04T10:47:48.494Z,10.80
2018-08-04T10:50:18.928Z,9.83
2018-08-04T10:52:51.877Z,10.50
2018-08-04T10:55:21.931Z,11.40
2018-08-04T10:57:51.652Z,9.17
2018-08-04T11:00:21.242Z,9.47
2018-08-04T11:02:50.869Z,9.80
2018-08-04T11:05:20.649Z,8.70
2018-08-04T11:07:53.631Z,9.70
2018-08-04T11:10:23.937Z,9.87
2018-08-04T11:12:53.577Z,10.50
2018-08-04T11:15:23.705Z,9.40
2018-08-04T11:17:53.693Z,10.43
2018-08-04T11:20:23.498Z,10.23
2018-08-04T11:22:53.379Z,9.33
2018-08-04T11:25:23.070Z,9.70
2018-08-04T11:27:52.870Z,10.03
2018-08-04T11:30:22.690Z,9.23
2018-08-04T11:32:52.532Z,10.90
2018-08-04T11:35:22.137Z,11.30
2018-08-04T11:37:51.804Z,10.97
2018-08-04T11:40:21.385Z,8.83
2018-08-04T11:42:50.987Z,10.67
2018-08-04T11:45:22.042Z,10.83
2018-08-04T11:47:51.719Z,10.17
2018-08-04T11:50:21.375Z,10.20
2018-08-04T11:52:50.884Z,10.10
2018-08-04T11:55:20.865Z,12.53
2018-08-04T11:57:50.476Z,9.47
2018-08-04T12:00:20.058Z,9.37
2018-08-04T12:02:50.132Z,8.80
2018-08-04T12:05:19.914Z,9.10
2018-08-04T12:07:49.454Z,10.47
2018-08-04T12:10:19.532Z,8.77
2018-08-04T12:12:49.342Z,10.90
2018-08-04T12:15:19.058Z,9.33
2018-08-04T12:17:48.659Z,9.87
2018-08-04T12:20:18.262Z,9.90
2018-08-04T12:22:48.389Z,8.70
2018-08-04T12:25:18.054Z,8.47
2018-08-04T12:27:47.648Z,8.97
2018-08-04T12:30:17.138Z,9.10
2018-08-04T12:32:47.227Z,9.40
2018-08-04T12:35:17.001Z,9.53
2018-08-04T12:37:46.765Z,10.00
2018-08-04T12:40:17.203Z,10.07
2018-08-04T12:42:46.683Z,9.50
2018-08-04T12:45:16.294Z,9.33
2018-08-04T12:47:45.791Z,9.53
2018-08-04T12:50:15.438Z,9.47
2018-08-04T12:52:45.057Z,9.57
2018-08-04T12:55:14.616Z,8.80
2018-08-04T12:57:44.198Z,8.77
2018-08-04T13:00:15.216Z,8.73
2018-08-04T13:02:45.113Z,9.80
2018-08-04T13:05:14.641Z,10.50
2018-08-04T13:07:44.158Z,9.30
2018-08-04T13:10:13.716Z,9.80
2018-08-04T13:12:43.461Z,9.17
2018-08-04T13:15:13.058Z,10.20
2018-08-04T13:17:42.651Z,10.13
2018-08-04T13:20:12.239Z,9.17
2018-08-04T13:22:41.821Z,9.93
2018-08-04T13:25:11.618Z,9.87
2018-08-04T13:27:41.185Z,9.27
2018-08-04T13:30:10.864Z,9.53
2018-08-04T13:32:40.390Z,9.80
2018-08-04T13:35:09.955Z,9.83
2018-08-04T13:37:39.771Z,12.93
2018-08-04T13:40:09.431Z,9.80
2018-08-04T13:42:39.151Z,8.03
2018-08-04T13:45:08.887Z,9.57
2018-08-04T13:47:38.473Z,9.00
2018-08-04T13:50:08.223Z,9.20
2018-08-04T13:52:37.969Z,9.37
2018-08-04T13:55:07.627Z,11.13
2018-08-04T13:57:37.190Z,8.60
2018-08-04T14:00:06.790Z,9.27
2018-08-04T14:02:36.286Z,8.43
2018-08-04T14:05:05.996Z,9.40
2018-08-04T14:07:35.583Z,8.83
2018-08-04T14:10:05.168Z,9.83
2018-08-04T14:12:35.074Z,8.77
2018-08-04T14:15:05.454Z,9.90
2018-08-04T14:17:35.043Z,10.17
2018-08-04T14:20:04.744Z,9.53
2018-08-04T14:22:34.404Z,9.80
2018-08-04T14:25:04.180Z,10.47
2018-08-04T14:27:35.275Z,9.13
2018-08-04T14:30:08.485Z,10.40
2018-08-04T14:32:38.469Z,10.80
2018-08-04T14:35:08.116Z,9.87
2018-08-04T14:37:38.421Z,9.27
2018-08-04T14:40:08.641Z,9.93
2018-08-04T14:42:38.274Z,9.97
2018-08-04T14:45:07.859Z,10.23
2018-08-04T14:47:37.781Z,10.57
2018-08-04T14:50:07.539Z,9.63
2018-08-04T14:52:37.251Z,8.83
2018-08-04T14:55:06.939Z,9.30
2018-08-04T14:57:36.503Z,9.60
2018-08-04T15:00:06.723Z,10.40
2018-08-04T15:02:42.291Z,10.30
2018-08-04T15:05:12.502Z,8.57
2018-08-04T15:07:42.156Z,8.80
2018-08-04T15:10:12.381Z,10.00
2018-08-04T15:12:42.779Z,8.90
2018-08-04T15:15:12.775Z,9.60
2018-08-04T15:17:42.689Z,10.97
2018-08-04T15:20:12.454Z,9.60
2018-08-04T15:22:45.396Z,10.20
2018-08-04T15:25:15.176Z,9.77
2018-08-04T15:27:45.162Z,10.00
2018-08-04T15:30:14.764Z,9.23
2018-08-04T15:32:45.295Z,9.50
2018-08-04T15:35:14.939Z,9.27
2018-08-04T15:37:44.543Z,9.30
2018-08-04T15:40:14.693Z,10.33
2018-08-04T15:42:44.331Z,10.80
2018-08-04T15:45:13.826Z,10.57
2018-08-04T15:47:43.392Z,9.27
2018-08-04T15:50:12.962Z,10.10
2018-08-04T15:52:42.654Z,9.80
2018-08-04T15:55:11.950Z,9.37
2018-08-04T15:57:41.367Z,9.73
2018-08-04T16:00:11.346Z,10.10
2018-08-04T16:02:40.985Z,11.40
2018-08-04T16:05:10.863Z,12.20
2018-08-04T16:07:40.497Z,10.47
2018-08-04T16:10:10.076Z,10.93
2018-08-04T16:12:39.641Z,10.03
2018-08-04T16:15:09.204Z,10.83
2018-08-04T16:17:38.811Z,11.20
2018-08-04T16:20:12.874Z,11.60
2018-08-04T16:22:42.456Z,12.37
2018-08-04T16:25:12.048Z,11.37
2018-08-04T16:27:41.966Z,12.23
2018-08-04T16:30:11.803Z,12.87
2018-08-04T16:32:42.198Z,12.93
2018-08-04T16:35:11.804Z,11.67
2018-08-04T16:37:41.292Z,12.50
2018-08-04T16:40:10.877Z,12.37
2018-08-04T16:42:40.573Z,11.63
2018-08-04T16:45:10.141Z,14.57
2018-08-04T16:47:40.192Z,15.80
2018-08-04T16:50:09.961Z,12.67
2018-08-04T16:52:39.131Z,12.80
2018-08-04T16:55:08.428Z,11.47
2018-08-04T16:57:38.206Z,15.53
2018-08-04T17:00:08.419Z,12.00
2018-08-04T17:02:37.943Z,12.73
2018-08-04T17:05:07.574Z,12.03
2018-08-04T17:07:37.539Z,12.00
2018-08-04T17:10:07.597Z,16.07
2018-08-04T17:12:37.241Z,12.50
2018-08-04T17:15:07.126Z,12.47
2018-08-04T17:17:37.265Z,12.47
2018-08-04T17:20:08.758Z,12.60
2018-08-04T17:22:39.049Z,13.20
2018-08-04T17:25:09.181Z,13.37
2018-08-04T17:27:40.095Z,13.03
2018-08-04T17:30:10.602Z,15.33
2018-08-04T17:32:42.218Z,13.00
2018-08-04T17:35:12.352Z,13.13
2018-08-04T17:37:42.610Z,14.60
2018-08-04T17:40:13.074Z,13.07
2018-08-04T17:42:43.412Z,14.00
2018-08-04T17:45:13.367Z,13.37
2018-08-04T17:47:43.527Z,13.80
2018-08-04T17:50:14.131Z,13.73
2018-08-04T17:52:44.582Z,15.53
2018-08-04T17:55:14.739Z,13.80
2018-08-04T17:57:44.531Z,13.33
2018-08-04T18:00:15.415Z,14.03
2018-08-04T18:02:46.360Z,13.73
2018-08-04T18:05:17.061Z,14.00
2018-08-04T18:07:47.261Z,15.43
2018-08-04T18:10:17.598Z,14.13
2018-08-04T18:12:48.408Z,16.03
2018-08-04T18:15:18.422Z,14.33
2018-08-04T18:17:48.621Z,15.20
2018-08-04T18:20:18.785Z,13.77
2018-08-04T18:22:50.478Z,16.90
2018-08-04T18:25:20.520Z,12.73
2018-08-04T18:28:00.323Z,15.73
2018-08-04T18:30:31.816Z,13.07
2018-08-04T18:33:01.908Z,14.30
2018-08-04T18:35:31.821Z,14.27
2018-08-04T18:38:01.949Z,13.70
2018-08-04T18:40:39.744Z,14.27
2018-08-04T18:43:10.539Z,16.13
2018-08-04T18:45:40.115Z,13.57
2018-08-04T18:48:09.871Z,14.23
2018-08-04T18:50:43.281Z,13.77
2018-08-04T18:53:12.957Z,15.20
2018-08-04T18:55:44.132Z,15.80
2018-08-04T18:58:14.290Z,15.40
2018-08-04T19:00:45.073Z,15.90
2018-08-04T19:03:15.193Z,14.13
2018-08-04T19:05:45.016Z,15.57
2018-08-04T19:08:14.662Z,19.10
2018-08-04T19:10:44.608Z,14.20
2018-08-04T19:13:15.620Z,14.57
2018-08-04T19:15:47.984Z,14.57
2018-08-04T19:18:17.871Z,13.63
2018-08-04T19:20:48.142Z,16.17
2018-08-04T19:23:17.901Z,15.83
2018-08-04T19:25:47.948Z,16.03
2018-08-04T19:28:18.166Z,16.13
2018-08-04T19:30:47.836Z,15.47
2018-08-04T19:33:17.382Z,15.30
2018-08-04T19:35:47.478Z,17.07
2018-08-04T19:38:17.365Z,17.10
2018-08-04T19:40:47.094Z,17.00
2018-08-04T19:43:16.668Z,18.93
2018-08-04T19:45:46.221Z,19.47
2018-08-04T19:48:16.743Z,19.60
2018-08-04T19:50:46.919Z,18.27
2018-08-04T19:53:18.085Z,17.90
2018-08-04T19:55:48.244Z,17.93
2018-08-04T19:58:18.646Z,18.73
2018-08-04T20:00:48.775Z,17.83
2018-08-04T20:03:19.072Z,17.27
2018-08-04T20:05:48.688Z,18.20
2018-08-04T20:08:18.363Z,18.83
2018-08-04T20:10:47.471Z,20.00
2018-08-04T20:13:17.618Z,19.27
2018-08-04T20:15:48.595Z,18.40
2018-08-04T20:18:19.880Z,19.90
2018-08-04T20:20:50.241Z,19.73
2018-08-04T20:23:20.012Z,18.97
2018-08-04T20:25:50.261Z,18.50
2018-08-04T20:28:20.956Z,17.80
2018-08-04T20:30:50.737Z,17.57
2018-08-04T20:33:20.822Z,18.53
2018-08-04T20:35:51.060Z,17.40
2018-08-04T20:38:20.681Z,17.77
2018-08-04T20:40:50.429Z,19.80
2018-08-04T20:43:20.152Z,17.53
2018-08-04T20:45:49.792Z,18.67
2018-08-04T20:48:18.955Z,19.07
2018-08-04T20:50:48.424Z,19.77
2018-08-04T20:53:18.421Z,18.07
2018-08-04T20:55:48.118Z,18.97
2018-08-04T20:58:17.807Z,17.30
2018-08-04T21:00:58.495Z,17.33
2018-08-04T21:03:28.066Z,18.90
2018-08-04T21:05:58.168Z,16.20
2018-08-04T21:08:27.742Z,16.97
2018-08-04T21:10:57.347Z,20.20
2018-08-04T21:13:27.745Z,17.13
2018-08-04T21:15:57.573Z,17.53
2018-08-04T21:18:27.578Z,16.00
2018-08-04T21:20:57.262Z,17.17
2018-08-04T21:23:27.266Z,18.50
2018-08-04T21:25:56.596Z,16.73
2018-08-04T21:28:25.749Z,17.83
2018-08-04T21:30:55.517Z,16.60
2018-08-04T21:33:25.652Z,16.40
2018-08-04T21:35:56.416Z,16.10
2018-08-04T21:38:26.967Z,17.23
2018-08-04T21:40:56.637Z,17.73
2018-08-04T21:43:26.454Z,17.03
2018-08-04T21:45:56.571Z,23.73
2018-08-04T21:48:26.194Z,18.93
2018-08-04T21:50:55.937Z,16.90
2018-08-04T21:53:25.705Z,18.33
2018-08-04T21:55:55.218Z,18.73
2018-08-04T21:58:24.792Z,18.80
2018-08-04T22:00:59.704Z,17.93
2018-08-04T22:03:29.326Z,19.97
2018-08-04T22:05:59.158Z,19.30
2018-08-04T22:08:40.075Z,17.77
2018-08-04T22:11:09.837Z,17.40
2018-08-04T22:13:46.346Z,20.00
2018-08-04T22:16:15.923Z,18.40
2018-08-04T22:18:45.351Z,19.60
2018-08-04T22:21:15.124Z,18.20
2018-08-04T22:23:44.841Z,20.30
2018-08-04T22:26:14.194Z,19.67
2018-08-04T22:28:43.665Z,22.40
2018-08-04T22:31:13.313Z,19.63
2018-08-04T22:33:43.260Z,20.40
2018-08-04T22:36:12.885Z,21.60
2018-08-04T22:38:42.475Z,20.43
2018-08-04T22:41:13.077Z,19.87
2018-08-04T22:43:42.618Z,19.97
2018-08-04T22:46:16.030Z,19.40
2018-08-04T22:48:47.421Z,20.67
2018-08-04T22:51:28.562Z,23.43
2018-08-04T22:53:58.073Z,22.30
2018-08-04T22:56:27.861Z,21.70
2018-08-04T22:58:57.439Z,20.37
2018-08-04T23:01:26.988Z,22.40
2018-08-04T23:03:56.656Z,21.57
2018-08-04T23:06:26.186Z,21.37
2018-08-04T23:08:55.714Z,21.53
2018-08-04T23:11:25.342Z,20.83
2018-08-04T23:13:54.888Z,22.97
2018-08-04T23:16:24.468Z,20.67
2018-08-04T23:18:54.192Z,21.50
2018-08-04T23:21:23.691Z,22.13
2018-08-04T23:23:53.208Z,21.03
2018-08-04T23:26:22.744Z,21.97
2018-08-04T23:28:52.444Z,23.17
2018-08-04T23:31:21.965Z,20.27
2018-08-04T23:33:51.533Z,21.20
2018-08-04T23:36:21.035Z,20.80
2018-08-04T23:38:50.565Z,22.43
2018-08-04T23:41:20.371Z,21.30
2018-08-04T23:43:50.466Z,21.00
2018-08-04T23:46:19.947Z,21.70
2018-08-04T23:48:49.472Z,21.27
2018-08-04T23:51:19.056Z,22.03
2018-08-04T23:53:48.606Z,23.07
2018-08-04T23:56:18.223Z,20.03
2018-08-04T23:58:47.772Z,20.50
